Time;durP1;ratioP1;P1;durP2;ratioP2;P2;SDS_P1;SDS_P2;PMS_P1;PMS_P2;Temp;Humidity;BMP_temperature;BMP_pressure;BME280_temperature;BME280_humidity;BME280_pressure;Samples;Min_cycle;Max_cycle;Signal;HPM_P1;HPM_P2
2022/01/06 00:01:52;;;;;;;11.93;4.70;;;8.00;99.90;;;;;;5070481;28;20926;-66
2022/01/06 00:04:18;;;;;;;8.57;4.13;;;8.00;99.90;;;;;;5069819;28;20632;-73
2022/01/06 00:06:44;;;;;;;6.13;3.60;;;8.10;99.90;;;;;;5068848;28;20166;-67
2022/01/06 00:09:11;;;;;;;11.07;4.23;;;8.10;99.90;;;;;;5090503;28;20208;-67
2022/01/06 00:11:37;;;;;;;7.57;4.30;;;8.10;99.90;;;;;;5071619;28;20196;-67
2022/01/06 00:14:19;;;;;;;8.83;4.67;;;8.20;99.90;;;;;;5052727;28;20473;-66
2022/01/06 00:24:48;;;;;;;7.10;3.93;;;8.20;99.90;;;;;;5051528;28;20400;-68
2022/01/06 00:27:14;;;;;;;7.80;4.43;;;7.90;99.90;;;;;;5033487;28;20439;-66
2022/01/06 00:29:41;;;;;;;8.63;4.40;;;8.10;99.90;;;;;;5048663;28;20458;-67
2022/01/06 00:32:07;;;;;;;15.60;5.40;;;8.10;99.90;;;;;;5056201;28;20477;-66
2022/01/06 00:34:33;;;;;;;9.00;4.80;;;8.10;99.90;;;;;;5071079;28;20411;-67
2022/01/06 00:36:59;;;;;;;12.07;5.20;;;8.10;99.90;;;;;;5056469;28;20422;-66
2022/01/06 00:39:27;;;;;;;8.70;5.63;;;8.00;99.90;;;;;;5072805;28;20228;-68
2022/01/06 00:41:59;;;;;;;12.30;6.00;;;8.00;99.90;;;;;;5074290;28;20260;-66
2022/01/06 00:44:25;;;;;;;11.80;6.30;;;8.00;99.90;;;;;;5041132;28;20431;-67
2022/01/06 00:46:52;;;;;;;12.33;7.77;;;8.10;99.90;;;;;;5073089;28;20541;-66
2022/01/06 00:49:20;;;;;;;12.13;7.00;;;8.10;99.90;;;;;;5072952;28;20466;-73
2022/01/06 00:51:46;;;;;;;11.20;6.73;;;8.10;99.90;;;;;;5073398;28;20434;-67
2022/01/06 00:54:13;;;;;;;11.90;6.10;;;8.00;99.90;;;;;;5072114;28;20770;-67
2022/01/06 00:56:38;;;;;;;11.50;6.43;;;7.90;99.90;;;;;;5071827;28;20444;-67
2022/01/06 00:59:04;;;;;;;10.30;7.20;;;7.90;99.90;;;;;;5073298;28;20407;-67
2022/01/06 01:01:31;;;;;;;12.50;6.70;;;7.90;99.90;;;;;;5071505;28;20172;-66
2022/01/06 01:03:57;;;;;;;11.03;7.23;;;8.00;99.90;;;;;;5072042;28;20180;-66
2022/01/06 01:06:23;;;;;;;11.73;7.70;;;8.00;99.90;;;;;;5069576;28;20437;-68
2022/01/06 01:08:49;;;;;;;10.23;7.67;;;7.90;99.90;;;;;;5073203;28;20483;-66
2022/01/06 01:11:15;;;;;;;12.43;6.50;;;7.90;99.90;;;;;;5071877;28;20426;-67
2022/01/06 01:13:55;;;;;;;9.70;6.00;;;8.00;99.90;;;;;;5072920;28;20628;-67
2022/01/06 01:16:30;;;;;;;8.40;6.23;;;7.90;99.90;;;;;;5068829;28;22018;-69
2022/01/06 01:18:57;;;;;;;8.20;6.30;;;8.00;99.90;;;;;;5069309;28;20502;-67
2022/01/06 01:21:28;;;;;;;11.17;6.70;;;8.00;99.90;;;;;;5071917;28;20423;-67
2022/01/06 01:23:59;;;;;;;13.43;6.70;;;8.10;99.90;;;;;;5073029;28;20408;-67
2022/01/06 01:26:26;;;;;;;10.00;6.20;;;8.00;99.90;;;;;;5070857;28;20414;-67
2022/01/06 01:28:52;;;;;;;12.43;5.47;;;8.00;99.90;;;;;;5070752;28;20909;-67
2022/01/06 01:31:24;;;;;;;11.17;5.20;;;8.10;99.90;;;;;;5072253;28;20572;-74
2022/01/06 01:33:52;;;;;;;6.67;5.03;;;8.00;99.90;;;;;;5072879;28;20404;-67
2022/01/06 01:36:19;;;;;;;9.70;5.20;;;8.10;99.90;;;;;;5072393;28;20404;-74
2022/01/06 01:38:45;;;;;;;6.10;4.40;;;8.10;99.90;;;;;;5072363;28;20466;-67
2022/01/06 01:41:11;;;;;;;9.37;4.60;;;8.10;99.90;;;;;;5072468;28;20931;-66
2022/01/06 01:43:38;;;;;;;9.87;4.67;;;8.20;99.90;;;;;;5071431;28;20445;-67
2022/01/06 01:46:14;;;;;;;7.80;4.00;;;8.20;99.90;;;;;;5071073;28;20691;-67
2022/01/06 01:48:45;;;;;;;8.87;4.40;;;8.20;99.90;;;;;;5071439;28;20698;-67
2022/01/06 01:51:10;;;;;;;9.43;4.97;;;8.10;99.90;;;;;;5070668;28;20728;-67
2022/01/06 01:53:37;;;;;;;9.67;5.07;;;8.10;99.90;;;;;;5071653;28;20521;-67
2022/01/06 01:56:07;;;;;;;9.17;4.27;;;8.10;99.90;;;;;;5071727;28;20176;-66
2022/01/06 01:58:34;;;;;;;12.60;4.93;;;8.10;99.90;;;;;;5072900;28;20394;-66
2022/01/06 02:01:00;;;;;;;10.70;5.10;;;8.10;99.90;;;;;;5072729;28;20438;-67
2022/01/06 02:03:26;;;;;;;12.37;5.17;;;8.00;99.90;;;;;;5069969;28;20423;-68
2022/01/06 02:05:51;;;;;;;7.50;4.57;;;7.90;99.90;;;;;;5069170;28;20178;-67
2022/01/06 02:08:17;;;;;;;15.90;4.80;;;8.00;99.90;;;;;;5071425;28;20316;-74
2022/01/06 02:10:43;;;;;;;9.13;4.60;;;7.90;99.90;;;;;;5071766;28;20190;-67
2022/01/06 02:13:09;;;;;;;17.90;5.20;;;8.00;99.90;;;;;;5071196;28;20540;-67
2022/01/06 02:15:34;;;;;;;11.77;4.63;;;7.90;99.90;;;;;;5067282;28;20250;-67
2022/01/06 02:18:00;;;;;;;9.43;4.40;;;7.90;99.90;;;;;;5071740;28;20185;-66
2022/01/06 02:20:26;;;;;;;11.63;4.70;;;7.90;99.90;;;;;;5058537;28;20424;-67
2022/01/06 02:22:52;;;;;;;11.17;4.43;;;7.80;99.90;;;;;;5052046;28;20184;-66
2022/01/06 02:25:19;;;;;;;10.50;4.90;;;7.80;99.90;;;;;;5068835;28;20422;-74
2022/01/06 02:27:52;;;;;;;6.47;4.17;;;7.70;99.90;;;;;;5067214;28;20512;-69
2022/01/06 02:30:19;;;;;;;11.60;4.80;;;7.80;99.90;;;;;;5070353;28;20776;-75
2022/01/06 02:32:45;;;;;;;10.83;4.73;;;7.70;99.90;;;;;;5071320;28;20411;-67
2022/01/06 02:35:14;;;;;;;8.10;4.90;;;7.70;99.90;;;;;;5068883;28;20460;-70
2022/01/06 02:37:40;;;;;;;7.60;4.20;;;7.80;99.90;;;;;;5070835;28;20419;-68
2022/01/06 02:40:12;;;;;;;7.23;4.50;;;7.80;99.90;;;;;;5070831;28;20479;-67
2022/01/06 02:42:47;;;;;;;8.10;5.07;;;7.70;99.90;;;;;;5070891;28;20461;-67
2022/01/06 02:45:13;;;;;;;11.87;4.80;;;7.80;99.90;;;;;;5068490;28;20464;-67
2022/01/06 02:47:41;;;;;;;10.17;4.77;;;7.80;99.90;;;;;;5071015;28;20540;-67
2022/01/06 02:50:08;;;;;;;12.50;5.00;;;7.80;99.90;;;;;;5071752;28;20418;-66
2022/01/06 02:52:34;;;;;;;12.90;5.70;;;7.80;99.90;;;;;;5071202;28;20426;-66
2022/01/06 02:55:00;;;;;;;8.10;4.43;;;7.90;99.90;;;;;;5072676;28;20755;-67
2022/01/06 02:57:26;;;;;;;8.97;4.80;;;7.80;99.90;;;;;;5071438;28;20425;-67
2022/01/06 02:59:52;;;;;;;12.70;5.23;;;7.80;99.90;;;;;;5071764;28;20427;-67
2022/01/06 03:02:17;;;;;;;10.53;4.77;;;7.80;99.90;;;;;;5072193;28;20608;-66
2022/01/06 03:04:43;;;;;;;9.47;4.10;;;7.80;99.90;;;;;;5071514;28;20179;-66
2022/01/06 03:07:09;;;;;;;12.77;4.87;;;7.80;99.90;;;;;;5071557;28;20650;-66
2022/01/06 03:09:40;;;;;;;11.10;4.80;;;7.80;99.90;;;;;;5070356;28;20222;-67
2022/01/06 03:12:18;;;;;;;11.93;4.83;;;7.80;99.90;;;;;;5072578;28;20219;-67
2022/01/06 03:14:44;;;;;;;8.30;4.43;;;7.90;99.90;;;;;;5071440;28;20414;-67
2022/01/06 03:17:10;;;;;;;11.83;6.93;;;7.90;99.90;;;;;;5072354;28;20430;-66
2022/01/06 03:19:35;;;;;;;12.27;5.40;;;7.90;99.90;;;;;;5071481;28;20838;-67
2022/01/06 03:22:01;;;;;;;9.10;4.83;;;7.90;99.90;;;;;;5072253;28;20176;-67
2022/01/06 03:24:27;;;;;;;12.40;5.30;;;7.90;99.90;;;;;;5071214;28;20218;-67
2022/01/06 03:26:53;;;;;;;9.10;5.40;;;7.90;99.90;;;;;;5072362;28;20727;-66
2022/01/06 03:29:18;;;;;;;9.70;5.20;;;7.60;99.90;;;;;;5070483;28;20216;-67
2022/01/06 03:31:44;;;;;;;12.80;5.47;;;7.90;99.90;;;;;;5068422;28;20225;-66
2022/01/06 03:34:10;;;;;;;11.67;5.00;;;7.90;99.90;;;;;;5072080;28;20184;-67
2022/01/06 03:36:36;;;;;;;15.53;5.10;;;7.90;99.90;;;;;;5071338;28;20182;-66
2022/01/06 03:39:03;;;;;;;9.17;5.57;;;7.80;99.90;;;;;;5072329;28;20909;-66
2022/01/06 03:41:29;;;;;;;11.30;4.93;;;7.80;99.90;;;;;;5071023;28;20422;-67
2022/01/06 03:43:54;;;;;;;11.90;4.53;;;7.90;99.90;;;;;;5072286;28;20414;-66
2022/01/06 03:46:20;;;;;;;9.20;4.60;;;7.80;99.90;;;;;;5070274;28;20240;-66
2022/01/06 03:48:46;;;;;;;7.87;4.00;;;7.90;99.90;;;;;;5070973;28;20201;-66
2022/01/06 03:51:12;;;;;;;11.80;4.70;;;7.80;99.90;;;;;;5071836;28;20176;-66
2022/01/06 03:53:38;;;;;;;7.37;3.43;;;7.80;99.90;;;;;;5052964;28;20218;-66
2022/01/06 03:56:04;;;;;;;12.37;4.30;;;7.70;99.90;;;;;;5070743;28;20439;-66
2022/01/06 03:58:30;;;;;;;9.50;4.30;;;7.70;99.90;;;;;;5071113;28;20418;-67
2022/01/06 04:00:56;;;;;;;9.03;4.10;;;7.70;99.90;;;;;;5070506;28;20910;-66
2022/01/06 04:03:22;;;;;;;9.80;4.40;;;7.70;99.90;;;;;;5070619;28;20173;-69
2022/01/06 04:05:47;;;;;;;8.37;4.70;;;7.70;99.90;;;;;;5071239;28;20234;-66
2022/01/06 04:08:13;;;;;;;10.33;4.20;;;7.60;99.90;;;;;;5053305;28;20313;-67
2022/01/06 04:10:39;;;;;;;9.47;4.10;;;7.60;99.90;;;;;;5074015;28;20693;-66
2022/01/06 04:13:05;;;;;;;10.43;4.50;;;7.60;99.90;;;;;;5074092;28;20445;-66
2022/01/06 04:15:30;;;;;;;9.07;4.63;;;7.60;99.90;;;;;;5074821;28;20189;-66
2022/01/06 04:17:56;;;;;;;8.87;4.10;;;7.70;99.90;;;;;;5074107;28;20550;-66
2022/01/06 04:20:22;;;;;;;8.73;4.77;;;7.70;99.90;;;;;;5075280;28;20180;-66
2022/01/06 04:22:47;;;;;;;11.73;4.83;;;7.70;99.90;;;;;;5074733;28;20169;-66
2022/01/06 04:25:13;;;;;;;9.97;4.40;;;7.80;99.90;;;;;;5074099;28;20230;-66
2022/01/06 04:27:40;;;;;;;10.20;4.80;;;7.80;99.90;;;;;;5074542;28;20208;-66
2022/01/06 04:30:07;;;;;;;7.10;4.13;;;7.70;99.90;;;;;;5075029;28;20902;-66
2022/01/06 04:32:34;;;;;;;11.43;4.60;;;7.70;99.90;;;;;;5074500;28;20422;-69
2022/01/06 04:34:59;;;;;;;8.07;4.63;;;7.70;99.90;;;;;;5075265;28;20857;-68
2022/01/06 04:37:27;;;;;;;9.23;6.90;;;7.80;99.90;;;;;;5074607;28;20490;-76
2022/01/06 04:39:53;;;;;;;8.63;4.83;;;7.60;99.90;;;;;;5074146;28;20264;-68
2022/01/06 04:42:18;;;;;;;12.97;6.83;;;7.70;99.90;;;;;;5073978;28;20876;-67
2022/01/06 04:44:44;;;;;;;6.63;5.30;;;7.60;99.90;;;;;;5074449;28;20406;-68
2022/01/06 04:47:10;;;;;;;10.17;4.70;;;7.60;99.90;;;;;;5073502;28;20227;-68
2022/01/06 04:49:36;;;;;;;11.70;4.00;;;7.60;99.90;;;;;;5073892;28;20242;-68
2022/01/06 04:52:02;;;;;;;10.23;4.60;;;7.50;99.90;;;;;;5074758;28;20761;-68
2022/01/06 04:54:27;;;;;;;13.73;6.53;;;7.50;99.90;;;;;;5074482;28;20261;-75
2022/01/06 04:56:53;;;;;;;11.20;6.40;;;7.50;99.90;;;;;;5074647;28;20445;-67
2022/01/06 04:59:19;;;;;;;9.10;4.80;;;7.50;99.90;;;;;;5074810;28;20528;-67
2022/01/06 05:01:44;;;;;;;10.70;5.20;;;7.50;99.90;;;;;;5073927;28;20178;-68
2022/01/06 05:04:10;;;;;;;10.30;4.60;;;7.40;99.90;;;;;;5073544;28;20182;-68
2022/01/06 05:06:36;;;;;;;11.60;5.30;;;7.50;99.90;;;;;;5074195;28;20187;-68
2022/01/06 05:09:02;;;;;;;9.13;4.70;;;7.40;99.90;;;;;;5056072;28;20201;-68
2022/01/06 05:11:28;;;;;;;12.97;4.87;;;7.50;99.90;;;;;;5052972;28;20261;-75
2022/01/06 05:13:55;;;;;;;12.10;5.20;;;7.40;99.90;;;;;;5054494;28;20430;-68
2022/01/06 05:16:21;;;;;;;13.30;5.30;;;7.40;99.90;;;;;;5053328;28;20417;-67
2022/01/06 05:18:46;;;;;;;10.57;4.57;;;7.40;99.90;;;;;;5053954;28;21043;-67
2022/01/06 05:21:12;;;;;;;13.33;4.67;;;7.30;99.90;;;;;;5052932;28;20206;-67
2022/01/06 05:23:39;;;;;;;17.47;7.30;;;7.30;99.90;;;;;;5053623;28;20448;-67
2022/01/06 05:26:05;;;;;;;9.90;4.33;;;7.20;99.90;;;;;;5054121;28;20387;-68
2022/01/06 05:28:31;;;;;;;12.03;6.93;;;7.30;99.90;;;;;;5052119;28;20463;-76
2022/01/06 05:30:56;;;;;;;9.83;6.00;;;7.20;99.90;;;;;;5054468;28;20946;-67
2022/01/06 05:33:22;;;;;;;7.90;5.00;;;7.30;99.90;;;;;;5054107;28;20230;-68
2022/01/06 05:35:48;;;;;;;10.83;5.27;;;7.30;99.90;;;;;;5053888;28;20187;-67
2022/01/06 05:38:14;;;;;;;9.27;5.07;;;7.30;99.90;;;;;;5052828;28;20284;-67
2022/01/06 05:40:40;;;;;;;11.13;5.20;;;7.30;99.90;;;;;;5053276;28;20685;-67
2022/01/06 05:43:05;;;;;;;10.90;4.87;;;7.20;99.90;;;;;;5054128;28;20498;-67
2022/01/06 05:45:31;;;;;;;9.03;5.40;;;7.20;99.90;;;;;;5053495;28;20437;-75
2022/01/06 05:47:57;;;;;;;11.60;5.20;;;7.20;99.90;;;;;;5053868;28;20213;-67
2022/01/06 05:50:23;;;;;;;8.97;6.40;;;7.20;99.90;;;;;;5058249;28;20188;-67
2022/01/06 05:52:49;;;;;;;10.97;4.13;;;7.20;99.90;;;;;;5073226;28;20310;-67
2022/01/06 05:55:15;;;;;;;16.27;3.97;;;7.30;99.90;;;;;;5073744;28;20472;-68
2022/01/06 05:57:41;;;;;;;11.70;6.27;;;7.30;99.90;;;;;;5072591;28;20409;-68
2022/01/06 06:00:08;;;;;;;12.30;5.83;;;7.20;99.90;;;;;;5073727;28;20389;-67
2022/01/06 06:02:34;;;;;;;10.27;3.90;;;7.20;99.90;;;;;;5072758;28;20415;-68
2022/01/06 06:05:00;;;;;;;10.93;4.63;;;7.20;99.90;;;;;;5071912;28;20451;-67
2022/01/06 06:07:26;;;;;;;11.67;5.10;;;7.20;99.90;;;;;;5073526;28;20178;-67
2022/01/06 06:09:52;;;;;;;11.30;5.73;;;7.10;99.90;;;;;;5072649;28;20782;-67
2022/01/06 06:12:18;;;;;;;10.83;4.70;;;7.10;99.90;;;;;;5073026;28;20417;-68
2022/01/06 06:14:43;;;;;;;11.63;5.23;;;7.10;99.90;;;;;;5071337;28;20198;-68
2022/01/06 06:17:09;;;;;;;14.67;6.40;;;7.10;99.90;;;;;;5072932;28;20413;-67
2022/01/06 06:19:35;;;;;;;17.50;5.20;;;7.10;99.90;;;;;;5072233;28;20436;-68
2022/01/06 06:22:01;;;;;;;11.60;4.67;;;7.00;99.90;;;;;;5073005;28;20294;-67
2022/01/06 06:24:27;;;;;;;10.00;5.30;;;7.00;99.90;;;;;;5073407;28;20968;-67
2022/01/06 06:26:53;;;;;;;9.77;5.50;;;7.00;99.90;;;;;;5072351;28;20739;-67
2022/01/06 06:29:19;;;;;;;15.03;6.57;;;7.00;99.90;;;;;;5071672;28;21000;-67
2022/01/06 06:31:46;;;;;;;9.47;4.40;;;7.00;99.90;;;;;;5068330;28;20595;-67
2022/01/06 06:34:12;;;;;;;8.03;4.10;;;7.00;99.90;;;;;;5053289;28;20464;-67
2022/01/06 06:36:38;;;;;;;10.23;7.73;;;7.00;99.90;;;;;;5052183;28;20411;-68
2022/01/06 06:39:05;;;;;;;9.47;5.10;;;7.00;99.90;;;;;;5053061;28;20259;-68
2022/01/06 06:41:31;;;;;;;13.10;4.90;;;7.00;99.90;;;;;;5053632;28;20941;-68
2022/01/06 06:43:56;;;;;;;9.63;6.17;;;7.10;99.90;;;;;;5052190;28;20423;-68
2022/01/06 06:46:22;;;;;;;14.57;6.57;;;7.00;99.90;;;;;;5052871;28;20220;-68
2022/01/06 06:48:48;;;;;;;9.33;4.13;;;6.90;99.90;;;;;;5050630;28;20302;-68
2022/01/06 06:51:15;;;;;;;9.00;3.47;;;6.90;99.90;;;;;;5051392;28;20511;-68
2022/01/06 06:53:44;;;;;;;6.87;5.90;;;7.00;99.90;;;;;;5050597;28;20240;-68
2022/01/06 06:56:10;;;;;;;18.27;6.03;;;6.90;99.90;;;;;;5052374;28;20412;-68
2022/01/06 06:58:36;;;;;;;9.40;6.10;;;7.00;99.90;;;;;;5060735;28;20434;-76
2022/01/06 07:01:02;;;;;;;11.57;4.87;;;7.00;99.90;;;;;;5052350;28;20435;-68
2022/01/06 07:03:28;;;;;;;13.93;5.23;;;7.00;99.90;;;;;;5052663;28;20201;-68
2022/01/06 07:05:53;;;;;;;8.53;7.43;;;7.00;99.90;;;;;;5051691;28;21101;-68
2022/01/06 07:08:19;;;;;;;9.73;5.83;;;7.00;99.90;;;;;;5052104;28;20208;-68
2022/01/06 07:10:45;;;;;;;11.20;5.20;;;7.00;99.90;;;;;;5051679;28;20191;-67
2022/01/06 07:13:16;;;;;;;7.70;4.70;;;7.00;99.90;;;;;;5050894;28;20255;-67
2022/01/06 07:15:46;;;;;;;11.53;4.80;;;7.00;99.90;;;;;;5061022;28;20394;-67
2022/01/06 07:18:11;;;;;;;5.90;4.90;;;7.10;99.90;;;;;;5052300;28;20410;-68
2022/01/06 07:20:38;;;;;;;6.80;4.47;;;6.80;99.90;;;;;;5056006;28;20453;-77
2022/01/06 07:23:04;;;;;;;8.60;5.80;;;7.10;99.90;;;;;;5070048;28;20245;-69
2022/01/06 07:25:30;;;;;;;15.87;7.30;;;7.00;99.90;;;;;;5057882;28;20910;-69
2022/01/06 07:27:56;;;;;;;7.27;6.33;;;7.00;99.90;;;;;;5051044;28;20481;-68
2022/01/06 07:30:23;;;;;;;7.33;5.93;;;6.90;99.90;;;;;;5053217;28;20873;-70
2022/01/06 07:32:50;;;;;;;7.30;4.50;;;6.90;99.90;;;;;;5052719;28;20397;-68
2022/01/06 07:35:18;;;;;;;9.17;5.03;;;6.90;99.90;;;;;;5062656;28;20408;-69
2022/01/06 07:37:46;;;;;;;7.13;6.53;;;6.80;99.90;;;;;;5063659;28;20430;-70
2022/01/06 07:40:12;;;;;;;8.47;5.73;;;6.80;99.90;;;;;;5073871;28;20461;-71
2022/01/06 07:42:38;;;;;;;13.70;5.90;;;8.30;99.90;;;;;;5091473;28;20855;-72
2022/01/06 07:45:04;;;;;;;7.83;6.77;;;9.90;99.90;;;;;;5094729;28;20475;-70
2022/01/06 07:47:32;;;;;;;7.40;4.67;;;10.90;99.90;;;;;;5058850;28;20437;-71
2022/01/06 07:49:59;;;;;;;10.43;4.33;;;11.90;98.70;;;;;;5059170;28;20794;-72
2022/01/06 07:52:25;;;;;;;9.40;7.70;;;12.80;94.10;;;;;;5070806;28;20472;-71
2022/01/06 07:54:51;;;;;;;7.87;5.03;;;13.50;92.10;;;;;;5061591;28;20428;-72
2022/01/06 07:57:17;;;;;;;7.77;7.03;;;14.00;88.10;;;;;;5055748;28;20411;-70
2022/01/06 07:59:42;;;;;;;7.50;6.90;;;14.40;85.20;;;;;;5055006;28;20442;-72
2022/01/06 08:02:08;;;;;;;4.80;3.77;;;14.80;82.60;;;;;;5056173;28;20182;-72
2022/01/06 08:04:35;;;;;;;5.73;4.57;;;15.00;79.90;;;;;;5056205;28;20178;-72
2022/01/06 08:07:01;;;;;;;7.70;6.80;;;15.20;78.40;;;;;;5069072;28;20192;-74
2022/01/06 08:09:26;;;;;;;8.90;5.77;;;15.40;77.50;;;;;;5073338;28;20445;-72
2022/01/06 08:11:52;;;;;;;8.60;7.57;;;15.50;76.90;;;;;;5070594;28;20916;-71
2022/01/06 08:14:18;;;;;;;9.30;5.20;;;15.60;74.80;;;;;;5055959;28;20184;-71
2022/01/06 08:16:44;;;;;;;8.93;5.50;;;15.70;74.20;;;;;;5053749;28;20749;-72
2022/01/06 08:19:10;;;;;;;8.20;7.50;;;15.80;74.90;;;;;;5055485;28;20894;-72
2022/01/06 08:21:36;;;;;;;9.90;5.47;;;16.00;74.20;;;;;;5060252;28;20578;-72
2022/01/06 08:24:02;;;;;;;7.93;7.33;;;16.10;73.30;;;;;;5075804;28;20961;-72
2022/01/06 08:26:28;;;;;;;6.93;5.80;;;16.20;73.00;;;;;;5075676;28;20556;-72
2022/01/06 08:28:53;;;;;;;7.47;5.93;;;16.40;71.60;;;;;;5074206;28;20205;-72
2022/01/06 08:31:19;;;;;;;6.37;5.30;;;16.60;71.00;;;;;;5061980;28;20207;-69
2022/01/06 08:33:46;;;;;;;7.23;4.93;;;16.40;65.50;;;;;;5054306;28;20177;-69
2022/01/06 08:36:12;;;;;;;8.40;7.40;;;15.70;64.60;;;;;;5056519;28;20257;-69
2022/01/06 08:38:38;;;;;;;7.53;5.40;;;15.00;65.90;;;;;;5053550;28;20428;-75
2022/01/06 08:41:04;;;;;;;7.70;5.43;;;14.30;68.00;;;;;;5054969;28;20423;-68
2022/01/06 08:43:29;;;;;;;9.07;5.63;;;13.50;70.20;;;;;;5054842;28;20178;-69
2022/01/06 08:45:56;;;;;;;9.53;5.33;;;12.80;72.40;;;;;;5055488;28;20979;-69
2022/01/06 08:48:27;;;;;;;8.50;6.13;;;12.10;75.70;;;;;;5075236;28;20224;-70
2022/01/06 08:50:53;;;;;;;9.27;5.70;;;11.50;78.40;;;;;;5074358;28;20395;-69
2022/01/06 08:53:20;;;;;;;12.80;6.53;;;11.10;81.70;;;;;;5074422;28;20417;-70
2022/01/06 08:55:46;;;;;;;8.67;5.80;;;10.50;84.40;;;;;;5057384;28;20565;-70
2022/01/06 08:58:13;;;;;;;11.90;6.07;;;10.10;87.00;;;;;;5075055;28;20751;-69
2022/01/06 09:00:40;;;;;;;13.73;6.17;;;9.80;90.30;;;;;;5072857;28;20408;-77
2022/01/06 09:03:07;;;;;;;12.70;5.60;;;9.50;91.30;;;;;;5072062;28;20430;-69
2022/01/06 09:05:33;;;;;;;5.50;4.90;;;9.20;92.40;;;;;;5074041;28;20468;-70
2022/01/06 09:07:59;;;;;;;8.23;6.33;;;8.90;93.20;;;;;;5073214;28;20466;-69
2022/01/06 09:10:29;;;;;;;9.50;5.67;;;8.70;94.20;;;;;;5075266;28;20478;-69
2022/01/06 09:12:55;;;;;;;10.80;6.07;;;8.60;94.90;;;;;;5074101;28;20411;-70
2022/01/06 09:15:21;;;;;;;7.00;5.10;;;8.50;95.50;;;;;;5069780;28;20420;-69
2022/01/06 09:17:47;;;;;;;8.87;6.40;;;8.50;96.20;;;;;;5059623;28;20426;-69
2022/01/06 09:20:13;;;;;;;9.77;5.53;;;8.80;96.90;;;;;;5074006;28;20473;-69
2022/01/06 09:22:40;;;;;;;13.27;6.80;;;9.70;96.30;;;;;;5073481;28;20530;-69
2022/01/06 09:25:07;;;;;;;11.13;7.67;;;10.90;93.60;;;;;;5064562;28;20408;-70
2022/01/06 09:27:32;;;;;;;7.70;5.13;;;12.10;91.00;;;;;;5066713;28;20418;-69
2022/01/06 09:29:58;;;;;;;5.13;4.33;;;13.20;86.40;;;;;;5072191;28;20837;-69
2022/01/06 09:32:24;;;;;;;8.27;5.63;;;14.00;80.50;;;;;;5072936;28;20183;-69
2022/01/06 09:34:50;;;;;;;7.60;6.53;;;14.60;77.40;;;;;;5069486;28;20433;-72
2022/01/06 09:37:17;;;;;;;6.57;4.60;;;15.30;74.30;;;;;;5056874;28;20177;-70
2022/01/06 09:39:45;;;;;;;8.87;7.83;;;16.00;70.80;;;;;;5071118;28;20173;-78
2022/01/06 09:42:12;;;;;;;9.40;6.23;;;16.60;67.70;;;;;;5069494;28;20524;-69
2022/01/06 09:44:39;;;;;;;12.00;5.57;;;17.10;66.20;;;;;;5068510;28;20475;-70
2022/01/06 09:47:08;;;;;;;11.67;7.17;;;17.30;63.20;;;;;;5058450;28;21354;-68
2022/01/06 09:49:39;;;;;;;7.83;5.10;;;17.40;62.70;;;;;;5054144;28;20488;-68
2022/01/06 09:52:07;;;;;;;9.40;5.47;;;17.60;61.30;;;;;;5053576;28;20412;-68
2022/01/06 09:54:34;;;;;;;8.10;6.00;;;17.60;60.80;;;;;;5074221;28;20808;-68
2022/01/06 09:57:00;;;;;;;8.33;4.90;;;17.20;60.20;;;;;;5071087;28;20423;-68
2022/01/06 09:59:26;;;;;;;7.50;5.33;;;16.60;61.50;;;;;;5067872;28;20937;-68
2022/01/06 10:01:52;;;;;;;10.43;7.80;;;16.00;62.80;;;;;;5055686;28;20435;-68
2022/01/06 10:04:28;;;;;;;9.90;6.40;;;15.40;65.20;;;;;;5053860;28;20177;-68
2022/01/06 10:07:05;;;;;;;10.30;7.73;;;15.00;67.20;;;;;;5061748;28;20410;-68
2022/01/06 10:09:33;;;;;;;9.20;6.73;;;14.70;67.60;;;;;;5073375;28;20457;-68
2022/01/06 10:12:01;;;;;;;14.13;5.07;;;14.40;69.20;;;;;;5070666;28;20429;-70
2022/01/06 10:14:40;;;;;;;12.80;9.30;;;14.40;71.30;;;;;;5070412;28;20976;-69
2022/01/06 10:17:06;;;;;;;13.70;6.57;;;14.70;71.00;;;;;;5060949;28;20414;-69
2022/01/06 10:19:35;;;;;;;10.33;5.97;;;15.20;69.40;;;;;;5067910;28;20423;-69
2022/01/06 10:22:00;;;;;;;10.50;5.57;;;15.60;68.50;;;;;;5071413;28;20176;-70
2022/01/06 10:24:28;;;;;;;7.70;5.20;;;16.10;67.10;;;;;;5068848;28;20447;-72
2022/01/06 10:26:58;;;;;;;9.13;8.30;;;16.50;65.90;;;;;;5058305;28;20173;-71
2022/01/06 10:29:29;;;;;;;8.67;6.10;;;16.70;64.30;;;;;;5071726;28;20464;-70
2022/01/06 10:32:09;;;;;;;12.40;8.73;;;16.90;63.30;;;;;;5071537;28;20470;-71
2022/01/06 10:34:39;;;;;;;200.73;135.90;;;16.90;63.40;;;;;;5071770;28;20408;-75
2022/01/06 10:37:17;;;;;;;31.43;24.93;;;16.90;64.00;;;;;;5071335;28;20411;-77
2022/01/06 10:39:45;;;;;;;274.50;184.90;;;16.80;63.90;;;;;;5052206;28;20873;-70
2022/01/06 10:42:11;;;;;;;18.30;14.13;;;16.50;63.60;;;;;;5071171;28;20812;-70
2022/01/06 10:44:54;;;;;;;11.17;7.10;;;16.40;65.00;;;;;;5072050;28;20423;-73
2022/01/06 10:47:30;;;;;;;9.73;7.27;;;16.10;65.10;;;;;;5070925;28;20424;-69
2022/01/06 10:50:15;;;;;;;11.80;8.20;;;16.00;66.20;;;;;;5063553;28;20906;-68
2022/01/06 10:52:45;;;;;;;8.83;7.50;;;16.00;67.10;;;;;;5071083;28;20414;-69
2022/01/06 10:55:43;;;;;;;15.50;8.10;;;16.10;66.10;;;;;;5070669;28;20419;-68
2022/01/06 10:58:17;;;;;;;15.03;6.67;;;16.30;66.90;;;;;;5057707;28;20434;-70
2022/01/06 11:00:49;;;;;;;18.83;10.43;;;16.50;65.30;;;;;;5066839;28;20415;-69
2022/01/06 11:03:17;;;;;;;9.83;7.40;;;16.40;65.30;;;;;;5069244;28;20392;-69
2022/01/06 11:05:48;;;;;;;15.13;9.27;;;16.30;64.90;;;;;;5071147;28;20415;-69
2022/01/06 11:08:17;;;;;;;10.37;7.60;;;16.30;65.50;;;;;;5067698;28;20868;-69
2022/01/06 11:10:48;;;;;;;12.47;6.80;;;16.30;65.90;;;;;;5070688;28;20445;-68
2022/01/06 11:13:17;;;;;;;12.43;7.17;;;16.30;65.80;;;;;;5069938;28;20440;-68
2022/01/06 11:15:43;;;;;;;10.13;8.60;;;16.30;66.40;;;;;;5066025;28;20450;-69
2022/01/06 11:18:09;;;;;;;9.43;7.53;;;16.40;65.50;;;;;;5069765;28;20419;-68
2022/01/06 11:20:36;;;;;;;12.07;7.73;;;16.30;64.70;;;;;;5070138;28;20956;-68
2022/01/06 11:23:02;;;;;;;11.83;7.67;;;16.30;65.10;;;;;;5070106;28;20779;-69
2022/01/06 11:25:34;;;;;;;9.83;7.90;;;16.30;64.70;;;;;;5070140;28;20518;-68
2022/01/06 11:28:02;;;;;;;13.73;7.47;;;16.20;65.10;;;;;;5069575;28;20482;-68
2022/01/06 11:30:39;;;;;;;10.40;7.50;;;16.10;66.20;;;;;;5069554;28;20473;-68
2022/01/06 11:33:05;;;;;;;13.60;10.47;;;16.10;66.30;;;;;;5066416;28;21284;-68
2022/01/06 11:35:57;;;;;;;18.17;11.30;;;16.10;67.00;;;;;;5069164;28;20411;-68
2022/01/06 11:38:26;;;;;;;17.53;12.50;;;16.10;67.40;;;;;;5070132;28;20176;-69
2022/01/06 11:41:09;;;;;;;280.43;162.03;;;16.10;67.10;;;;;;5068325;28;20441;-70
2022/01/06 11:43:41;;;;;;;34.90;24.47;;;16.10;67.70;;;;;;5047494;28;20415;-72
2022/01/06 11:46:07;;;;;;;15.57;12.57;;;15.90;67.90;;;;;;5060010;28;20466;-80
2022/01/06 11:48:43;;;;;;;270.87;198.13;;;15.80;68.70;;;;;;5059790;28;20456;-67
2022/01/06 11:51:20;;;;;;;29.60;20.37;;;15.80;68.30;;;;;;5051800;28;20994;-67
2022/01/06 11:53:46;;;;;;;16.40;11.50;;;15.80;67.60;;;;;;5052092;28;20431;-75
2022/01/06 11:56:13;;;;;;;18.77;12.10;;;15.70;67.00;;;;;;5070805;28;20429;-67
2022/01/06 11:58:39;;;;;;;15.90;11.87;;;15.60;67.80;;;;;;5071133;28;20215;-67
2022/01/06 12:01:08;;;;;;;19.40;12.47;;;15.50;68.10;;;;;;5060933;28;20844;-67
2022/01/06 12:03:42;;;;;;;20.67;12.97;;;15.50;68.20;;;;;;5070017;28;20527;-67
2022/01/06 12:06:12;;;;;;;17.73;13.57;;;15.40;67.90;;;;;;5071270;28;20414;-67
2022/01/06 12:08:42;;;;;;;19.67;12.33;;;15.30;68.40;;;;;;5068783;28;20453;-68
2022/01/06 12:11:25;;;;;;;21.57;14.33;;;15.30;68.20;;;;;;5069668;28;20705;-67
2022/01/06 12:13:55;;;;;;;17.40;12.00;;;15.20;68.60;;;;;;5060146;28;20430;-69
2022/01/06 12:16:37;;;;;;;469.03;285.13;;;15.00;69.00;;;;;;5070391;28;20431;-69
2022/01/06 12:19:15;;;;;;;30.87;19.70;;;14.90;70.60;;;;;;5066870;28;20462;-68
2022/01/06 12:21:41;;;;;;;22.20;14.30;;;14.70;69.50;;;;;;5067529;28;20515;-70
2022/01/06 12:24:09;;;;;;;16.73;12.00;;;14.40;69.50;;;;;;5069078;28;20420;-67
2022/01/06 12:26:35;;;;;;;17.03;12.10;;;14.20;70.70;;;;;;5068781;28;20419;-67
2022/01/06 12:29:04;;;;;;;17.70;11.47;;;14.00;71.50;;;;;;5050871;28;20977;-67
2022/01/06 12:31:32;;;;;;;19.83;14.20;;;13.70;71.30;;;;;;5065082;28;20416;-67
2022/01/06 12:34:01;;;;;;;22.33;13.13;;;13.40;72.40;;;;;;5073310;28;20449;-68
2022/01/06 12:36:30;;;;;;;20.70;12.20;;;13.10;72.70;;;;;;5070787;28;20464;-67
2022/01/06 12:38:56;;;;;;;16.03;12.10;;;12.90;74.30;;;;;;5057201;28;20438;-67
2022/01/06 12:41:30;;;;;;;19.77;12.13;;;12.80;75.60;;;;;;5070218;28;20420;-67
2022/01/06 12:43:57;;;;;;;17.17;11.80;;;12.70;75.70;;;;;;5062404;28;21013;-70
2022/01/06 12:46:33;;;;;;;22.57;13.00;;;12.60;76.50;;;;;;5063470;28;20542;-68
2022/01/06 12:49:00;;;;;;;22.97;12.20;;;12.60;77.10;;;;;;5064108;28;21012;-69
2022/01/06 12:51:29;;;;;;;19.80;13.43;;;12.60;93.70;;;;;;5074457;28;20419;-69
2022/01/06 12:54:08;;;;;;;19.33;11.97;;;12.80;96.20;;;;;;5065994;28;20413;-69
2022/01/06 12:56:40;;;;;;;18.90;12.43;;;13.00;94.70;;;;;;5071060;28;20472;-69